sensor_id;sensor_type;location;lat;lon;timestamp;P1;P2;P0
55754;PMS5003;41674;52.290;-1.474;2024-02-26T00:00:56;8;8;
55754;PMS5003;41674;52.290;-1.474;2024-02-26T00:03:26;7;7;
55754;PMS5003;41674;52.290;-1.474;2024-02-26T00:05:55;7;7;
55754;PMS5003;41674;52.290;-1.474;2024-02-26T00:08:25;4;4;
55754;PMS5003;41674;52.290;-1.474;2024-02-26T00:10:55;7;5;
55754;PMS5003;41674;52.290;-1.474;2024-02-26T00:13:24;8;5;
55754;PMS5003;41674;52.290;-1.474;2024-02-26T00:15:54;8;8;
55754;PMS5003;41674;52.290;-1.474;2024-02-26T00:18:24;6;5;
55754;PMS5003;41674;52.290;-1.474;2024-02-26T00:20:53;8;7;
55754;PMS5003;41674;52.290;-1.474;2024-02-26T00:23:23;9;9;
55754;PMS5003;41674;52.290;-1.474;2024-02-26T00:25:54;7;6;
55754;PMS5003;41674;52.290;-1.474;2024-02-26T00:28:24;10;8;
55754;PMS5003;41674;52.290;-1.474;2024-02-26T00:30:52;8;8;
55754;PMS5003;41674;52.290;-1.474;2024-02-26T00:33:22;9;9;
55754;PMS5003;41674;52.290;-1.474;2024-02-26T00:35:52;8;8;
55754;PMS5003;41674;52.290;-1.474;2024-02-26T00:38:21;13;10;
55754;PMS5003;41674;52.290;-1.474;2024-02-26T00:40:51;11;10;
55754;PMS5003;41674;52.290;-1.474;2024-02-26T00:43:21;10;9;
55754;PMS5003;41674;52.290;-1.474;2024-02-26T00:45:50;11;9;
55754;PMS5003;41674;52.290;-1.474;2024-02-26T00:48:20;10;10;
55754;PMS5003;41674;52.290;-1.474;2024-02-26T00:50:49;10;10;
55754;PMS5003;41674;52.290;-1.474;2024-02-26T00:53:18;12;10;
55754;PMS5003;41674;52.290;-1.474;2024-02-26T00:55:48;7;7;
55754;PMS5003;41674;52.290;-1.474;2024-02-26T00:58:18;13;9;
55754;PMS5003;41674;52.290;-1.474;2024-02-26T01:00:47;9;8;
55754;PMS5003;41674;52.290;-1.474;2024-02-26T01:03:17;10;7;
55754;PMS5003;41674;52.290;-1.474;2024-02-26T01:05:47;7;7;
55754;PMS5003;41674;52.290;-1.474;2024-02-26T01:08:16;10;7;
55754;PMS5003;41674;52.290;-1.474;2024-02-26T01:10:46;8;8;
55754;PMS5003;41674;52.290;-1.474;2024-02-26T01:13:16;7;7;
55754;PMS5003;41674;52.290;-1.474;2024-02-26T01:15:47;7;5;
55754;PMS5003;41674;52.290;-1.474;2024-02-26T01:18:17;9;8;
55754;PMS5003;41674;52.290;-1.474;2024-02-26T01:20:45;9;7;
55754;PMS5003;41674;52.290;-1.474;2024-02-26T01:23:16;10;8;
55754;PMS5003;41674;52.290;-1.474;2024-02-26T01:25:44;8;7;
55754;PMS5003;41674;52.290;-1.474;2024-02-26T01:28:14;7;7;
55754;PMS5003;41674;52.290;-1.474;2024-02-26T01:30:44;8;5;
55754;PMS5003;41674;52.290;-1.474;2024-02-26T01:33:13;7;7;
55754;PMS5003;41674;52.290;-1.474;2024-02-26T01:35:43;6;6;
55754;PMS5003;41674;52.290;-1.474;2024-02-26T01:38:13;6;5;
55754;PMS5003;41674;52.290;-1.474;2024-02-26T01:40:43;9;8;
55754;PMS5003;41674;52.290;-1.474;2024-02-26T01:43:12;8;5;
55754;PMS5003;41674;52.290;-1.474;2024-02-26T01:45:42;7;7;
55754;PMS5003;41674;52.290;-1.474;2024-02-26T01:48:11;8;7;
55754;PMS5003;41674;52.290;-1.474;2024-02-26T01:50:41;10;7;
55754;PMS5003;41674;52.290;-1.474;2024-02-26T01:53:11;9;7;
55754;PMS5003;41674;52.290;-1.474;2024-02-26T01:55:40;7;6;
55754;PMS5003;41674;52.290;-1.474;2024-02-26T01:58:10;8;5;
55754;PMS5003;41674;52.290;-1.474;2024-02-26T02:00:40;7;7;
55754;PMS5003;41674;52.290;-1.474;2024-02-26T02:03:09;6;6;
55754;PMS5003;41674;52.290;-1.474;2024-02-26T02:05:39;6;6;
55754;PMS5003;41674;52.290;-1.474;2024-02-26T02:08:10;6;6;
55754;PMS5003;41674;52.290;-1.474;2024-02-26T02:10:38;5;5;
55754;PMS5003;41674;52.290;-1.474;2024-02-26T02:13:08;9;7;
55754;PMS5003;41674;52.290;-1.474;2024-02-26T02:15:38;6;6;
55754;PMS5003;41674;52.290;-1.474;2024-02-26T02:18:07;8;6;
55754;PMS5003;41674;52.290;-1.474;2024-02-26T02:20:37;6;5;
55754;PMS5003;41674;52.290;-1.474;2024-02-26T02:23:07;5;5;
55754;PMS5003;41674;52.290;-1.474;2024-02-26T02:25:36;7;6;
55754;PMS5003;41674;52.290;-1.474;2024-02-26T02:28:06;8;6;
55754;PMS5003;41674;52.290;-1.474;2024-02-26T02:30:36;4;4;
55754;PMS5003;41674;52.290;-1.474;2024-02-26T02:33:05;7;7;
55754;PMS5003;41674;52.290;-1.474;2024-02-26T02:35:35;9;9;
55754;PMS5003;41674;52.290;-1.474;2024-02-26T02:38:05;7;5;
55754;PMS5003;41674;52.290;-1.474;2024-02-26T02:40:35;11;9;
55754;PMS5003;41674;52.290;-1.474;2024-02-26T02:43:04;8;8;
55754;PMS5003;41674;52.290;-1.474;2024-02-26T02:45:34;10;8;
55754;PMS5003;41674;52.290;-1.474;2024-02-26T02:48:04;10;8;
55754;PMS5003;41674;52.290;-1.474;2024-02-26T02:50:33;13;11;
55754;PMS5003;41674;52.290;-1.474;2024-02-26T02:53:03;10;10;
55754;PMS5003;41674;52.290;-1.474;2024-02-26T02:55:33;11;8;
55754;PMS5003;41674;52.290;-1.474;2024-02-26T02:58:03;12;10;
55754;PMS5003;41674;52.290;-1.474;2024-02-26T03:00:32;12;11;
55754;PMS5003;41674;52.290;-1.474;2024-02-26T03:03:02;9;9;
55754;PMS5003;41674;52.290;-1.474;2024-02-26T03:05:32;9;8;
55754;PMS5003;41674;52.290;-1.474;2024-02-26T03:08:01;10;10;
55754;PMS5003;41674;52.290;-1.474;2024-02-26T03:10:30;11;11;
55754;PMS5003;41674;52.290;-1.474;2024-02-26T03:13:00;10;10;
55754;PMS5003;41674;52.290;-1.474;2024-02-26T03:15:29;9;9;
55754;PMS5003;41674;52.290;-1.474;2024-02-26T03:18:01;11;11;
55754;PMS5003;41674;52.290;-1.474;2024-02-26T03:20:29;14;14;
55754;PMS5003;41674;52.290;-1.474;2024-02-26T03:22:58;17;17;
55754;PMS5003;41674;52.290;-1.474;2024-02-26T03:25:28;12;12;
55754;PMS5003;41674;52.290;-1.474;2024-02-26T03:27:58;12;11;
55754;PMS5003;41674;52.290;-1.474;2024-02-26T03:30:28;13;12;
55754;PMS5003;41674;52.290;-1.474;2024-02-26T03:32:57;15;14;
55754;PMS5003;41674;52.290;-1.474;2024-02-26T03:35:27;13;11;
55754;PMS5003;41674;52.290;-1.474;2024-02-26T03:37:56;16;14;
55754;PMS5003;41674;52.290;-1.474;2024-02-26T03:40:26;18;16;
55754;PMS5003;41674;52.290;-1.474;2024-02-26T03:42:55;16;15;
55754;PMS5003;41674;52.290;-1.474;2024-02-26T03:45:24;11;10;
55754;PMS5003;41674;52.290;-1.474;2024-02-26T03:47:54;13;11;
55754;PMS5003;41674;52.290;-1.474;2024-02-26T03:50:23;14;11;
55754;PMS5003;41674;52.290;-1.474;2024-02-26T03:52:53;10;10;
55754;PMS5003;41674;52.290;-1.474;2024-02-26T03:55:23;11;10;
55754;PMS5003;41674;52.290;-1.474;2024-02-26T03:57:53;11;11;
55754;PMS5003;41674;52.290;-1.474;2024-02-26T04:00:22;12;10;
55754;PMS5003;41674;52.290;-1.474;2024-02-26T04:02:52;13;11;
55754;PMS5003;41674;52.290;-1.474;2024-02-26T04:05:21;9;9;
55754;PMS5003;41674;52.290;-1.474;2024-02-26T04:07:50;9;7;
55754;PMS5003;41674;52.290;-1.474;2024-02-26T04:10:20;9;9;
55754;PMS5003;41674;52.290;-1.474;2024-02-26T04:12:50;9;9;
55754;PMS5003;41674;52.290;-1.474;2024-02-26T04:15:20;10;9;
55754;PMS5003;41674;52.290;-1.474;2024-02-26T04:17:49;8;8;
55754;PMS5003;41674;52.290;-1.474;2024-02-26T04:20:21;9;9;
55754;PMS5003;41674;52.290;-1.474;2024-02-26T04:22:48;9;8;
55754;PMS5003;41674;52.290;-1.474;2024-02-26T04:25:18;8;8;
55754;PMS5003;41674;52.290;-1.474;2024-02-26T04:27:48;10;8;
55754;PMS5003;41674;52.290;-1.474;2024-02-26T04:30:17;9;7;
55754;PMS5003;41674;52.290;-1.474;2024-02-26T04:32:47;8;6;
55754;PMS5003;41674;52.290;-1.474;2024-02-26T04:35:17;3;3;
55754;PMS5003;41674;52.290;-1.474;2024-02-26T04:37:48;6;5;
55754;PMS5003;41674;52.290;-1.474;2024-02-26T04:40:18;5;5;
55754;PMS5003;41674;52.290;-1.474;2024-02-26T04:42:46;7;5;
55754;PMS5003;41674;52.290;-1.474;2024-02-26T04:45:16;9;5;
55754;PMS5003;41674;52.290;-1.474;2024-02-26T04:47:45;3;3;
55754;PMS5003;41674;52.290;-1.474;2024-02-26T04:50:15;4;3;
55754;PMS5003;41674;52.290;-1.474;2024-02-26T04:52:45;6;5;
55754;PMS5003;41674;52.290;-1.474;2024-02-26T04:55:14;5;5;
55754;PMS5003;41674;52.290;-1.474;2024-02-26T04:57:44;7;5;
55754;PMS5003;41674;52.290;-1.474;2024-02-26T05:00:14;7;5;
55754;PMS5003;41674;52.290;-1.474;2024-02-26T05:02:43;3;3;
55754;PMS5003;41674;52.290;-1.474;2024-02-26T05:05:13;5;4;
55754;PMS5003;41674;52.290;-1.474;2024-02-26T05:07:42;5;5;
55754;PMS5003;41674;52.290;-1.474;2024-02-26T05:10:14;6;6;
55754;PMS5003;41674;52.290;-1.474;2024-02-26T05:12:42;3;3;
55754;PMS5003;41674;52.290;-1.474;2024-02-26T05:15:11;3;3;
55754;PMS5003;41674;52.290;-1.474;2024-02-26T05:17:41;5;4;
55754;PMS5003;41674;52.290;-1.474;2024-02-26T05:20:11;4;4;
55754;PMS5003;41674;52.290;-1.474;2024-02-26T05:22:40;3;3;
55754;PMS5003;41674;52.290;-1.474;2024-02-26T05:25:10;2;2;
55754;PMS5003;41674;52.290;-1.474;2024-02-26T05:27:40;5;4;
55754;PMS5003;41674;52.290;-1.474;2024-02-26T05:30:10;3;3;
55754;PMS5003;41674;52.290;-1.474;2024-02-26T05:32:39;5;3;
55754;PMS5003;41674;52.290;-1.474;2024-02-26T05:35:09;5;5;
55754;PMS5003;41674;52.290;-1.474;2024-02-26T05:37:39;4;3;
55754;PMS5003;41674;52.290;-1.474;2024-02-26T05:40:08;3;3;
55754;PMS5003;41674;52.290;-1.474;2024-02-26T05:42:38;3;3;
55754;PMS5003;41674;52.290;-1.474;2024-02-26T05:45:09;4;4;
55754;PMS5003;41674;52.290;-1.474;2024-02-26T05:47:37;3;3;
55754;PMS5003;41674;52.290;-1.474;2024-02-26T05:50:07;5;2;
55754;PMS5003;41674;52.290;-1.474;2024-02-26T05:52:37;3;3;
55754;PMS5003;41674;52.290;-1.474;2024-02-26T05:55:07;3;3;
55754;PMS5003;41674;52.290;-1.474;2024-02-26T05:57:36;4;4;
55754;PMS5003;41674;52.290;-1.474;2024-02-26T06:00:07;4;3;
55754;PMS5003;41674;52.290;-1.474;2024-02-26T06:02:36;4;4;
55754;PMS5003;41674;52.290;-1.474;2024-02-26T06:05:05;4;4;
55754;PMS5003;41674;52.290;-1.474;2024-02-26T06:07:35;4;3;
55754;PMS5003;41674;52.290;-1.474;2024-02-26T06:10:05;2;2;
55754;PMS5003;41674;52.290;-1.474;2024-02-26T06:12:35;4;4;
55754;PMS5003;41674;52.290;-1.474;2024-02-26T06:15:04;3;3;
55754;PMS5003;41674;52.290;-1.474;2024-02-26T06:17:34;6;5;
55754;PMS5003;41674;52.290;-1.474;2024-02-26T06:20:06;3;3;
55754;PMS5003;41674;52.290;-1.474;2024-02-26T06:22:33;4;3;
55754;PMS5003;41674;52.290;-1.474;2024-02-26T06:25:03;3;2;
55754;PMS5003;41674;52.290;-1.474;2024-02-26T06:27:32;6;5;
55754;PMS5003;41674;52.290;-1.474;2024-02-26T06:30:02;2;2;
55754;PMS5003;41674;52.290;-1.474;2024-02-26T06:32:32;3;3;
55754;PMS5003;41674;52.290;-1.474;2024-02-26T06:35:04;2;2;
55754;PMS5003;41674;52.290;-1.474;2024-02-26T06:37:31;5;3;
55754;PMS5003;41674;52.290;-1.474;2024-02-26T06:40:01;1;1;
55754;PMS5003;41674;52.290;-1.474;2024-02-26T06:42:31;2;2;
55754;PMS5003;41674;52.290;-1.474;2024-02-26T06:45:01;3;3;
55754;PMS5003;41674;52.290;-1.474;2024-02-26T06:47:30;2;2;
55754;PMS5003;41674;52.290;-1.474;2024-02-26T06:50:00;4;3;
55754;PMS5003;41674;52.290;-1.474;2024-02-26T06:52:31;4;2;
55754;PMS5003;41674;52.290;-1.474;2024-02-26T06:54:59;4;3;
55754;PMS5003;41674;52.290;-1.474;2024-02-26T06:57:28;1;1;
55754;PMS5003;41674;52.290;-1.474;2024-02-26T06:59:58;2;2;
55754;PMS5003;41674;52.290;-1.474;2024-02-26T07:02:29;7;5;
55754;PMS5003;41674;52.290;-1.474;2024-02-26T07:04:58;2;2;
55754;PMS5003;41674;52.290;-1.474;2024-02-26T07:07:27;1;1;
55754;PMS5003;41674;52.290;-1.474;2024-02-26T07:09:57;1;1;
55754;PMS5003;41674;52.290;-1.474;2024-02-26T07:12:27;3;3;
55754;PMS5003;41674;52.290;-1.474;2024-02-26T07:14:57;3;3;
55754;PMS5003;41674;52.290;-1.474;2024-02-26T07:17:26;7;4;
55754;PMS5003;41674;52.290;-1.474;2024-02-26T07:19:56;4;2;
55754;PMS5003;41674;52.290;-1.474;2024-02-26T07:22:25;2;1;
55754;PMS5003;41674;52.290;-1.474;2024-02-26T07:24:55;1;1;
55754;PMS5003;41674;52.290;-1.474;2024-02-26T07:27:25;3;3;
55754;PMS5003;41674;52.290;-1.474;2024-02-26T07:29:54;3;2;
55754;PMS5003;41674;52.290;-1.474;2024-02-26T07:32:24;4;3;
55754;PMS5003;41674;52.290;-1.474;2024-02-26T07:34:54;5;4;
55754;PMS5003;41674;52.290;-1.474;2024-02-26T07:37:24;3;3;
55754;PMS5003;41674;52.290;-1.474;2024-02-26T07:39:53;2;2;
55754;PMS5003;41674;52.290;-1.474;2024-02-26T07:42:23;5;2;
55754;PMS5003;41674;52.290;-1.474;2024-02-26T07:44:53;2;2;
55754;PMS5003;41674;52.290;-1.474;2024-02-26T07:47:23;2;2;
55754;PMS5003;41674;52.290;-1.474;2024-02-26T07:49:52;2;2;
55754;PMS5003;41674;52.290;-1.474;2024-02-26T07:52:22;2;2;
55754;PMS5003;41674;52.290;-1.474;2024-02-26T07:54:52;4;2;
55754;PMS5003;41674;52.290;-1.474;2024-02-26T07:57:21;3;3;
55754;PMS5003;41674;52.290;-1.474;2024-02-26T07:59:51;2;1;
55754;PMS5003;41674;52.290;-1.474;2024-02-26T08:02:21;4;3;
55754;PMS5003;41674;52.290;-1.474;2024-02-26T08:04:52;1;1;
55754;PMS5003;41674;52.290;-1.474;2024-02-26T08:07:20;1;1;
55754;PMS5003;41674;52.290;-1.474;2024-02-26T08:09:50;1;0;
55754;PMS5003;41674;52.290;-1.474;2024-02-26T08:12:19;3;3;
55754;PMS5003;41674;52.290;-1.474;2024-02-26T08:14:49;4;2;
55754;PMS5003;41674;52.290;-1.474;2024-02-26T08:17:19;2;2;
55754;PMS5003;41674;52.290;-1.474;2024-02-26T08:19:49;3;2;
55754;PMS5003;41674;52.290;-1.474;2024-02-26T08:22:18;1;1;
55754;PMS5003;41674;52.290;-1.474;2024-02-26T08:24:48;3;3;
55754;PMS5003;41674;52.290;-1.474;2024-02-26T08:27:19;1;1;
55754;PMS5003;41674;52.290;-1.474;2024-02-26T08:29:47;2;2;
55754;PMS5003;41674;52.290;-1.474;2024-02-26T08:32:17;2;2;
55754;PMS5003;41674;52.290;-1.474;2024-02-26T08:34:47;2;2;
55754;PMS5003;41674;52.290;-1.474;2024-02-26T08:37:17;2;2;
55754;PMS5003;41674;52.290;-1.474;2024-02-26T08:39:46;3;3;
55754;PMS5003;41674;52.290;-1.474;2024-02-26T08:42:16;1;0;
55754;PMS5003;41674;52.290;-1.474;2024-02-26T08:44:47;2;2;
55754;PMS5003;41674;52.290;-1.474;2024-02-26T08:47:15;3;3;
55754;PMS5003;41674;52.290;-1.474;2024-02-26T08:49:45;2;2;
55754;PMS5003;41674;52.290;-1.474;2024-02-26T08:52:16;3;3;
55754;PMS5003;41674;52.290;-1.474;2024-02-26T08:54:44;4;4;
55754;PMS5003;41674;52.290;-1.474;2024-02-26T08:57:14;3;3;
55754;PMS5003;41674;52.290;-1.474;2024-02-26T08:59:44;2;2;
55754;PMS5003;41674;52.290;-1.474;2024-02-26T09:02:13;3;3;
55754;PMS5003;41674;52.290;-1.474;2024-02-26T09:04:44;2;2;
55754;PMS5003;41674;52.290;-1.474;2024-02-26T09:07:12;2;2;
55754;PMS5003;41674;52.290;-1.474;2024-02-26T09:09:42;2;2;
55754;PMS5003;41674;52.290;-1.474;2024-02-26T09:12:12;2;1;
55754;PMS5003;41674;52.290;-1.474;2024-02-26T09:14:41;3;3;
55754;PMS5003;41674;52.290;-1.474;2024-02-26T09:17:11;2;2;
55754;PMS5003;41674;52.290;-1.474;2024-02-26T09:19:41;5;3;
55754;PMS5003;41674;52.290;-1.474;2024-02-26T09:22:10;2;2;
55754;PMS5003;41674;52.290;-1.474;2024-02-26T09:24:40;2;2;
55754;PMS5003;41674;52.290;-1.474;2024-02-26T09:27:10;2;1;
55754;PMS5003;41674;52.290;-1.474;2024-02-26T09:29:39;3;2;
55754;PMS5003;41674;52.290;-1.474;2024-02-26T09:32:09;4;4;
55754;PMS5003;41674;52.290;-1.474;2024-02-26T09:34:39;0;0;
55754;PMS5003;41674;52.290;-1.474;2024-02-26T09:37:10;3;2;
55754;PMS5003;41674;52.290;-1.474;2024-02-26T09:39:38;3;2;
55754;PMS5003;41674;52.290;-1.474;2024-02-26T09:42:08;3;3;
55754;PMS5003;41674;52.290;-1.474;2024-02-26T09:44:39;2;1;
55754;PMS5003;41674;52.290;-1.474;2024-02-26T09:47:07;2;2;
55754;PMS5003;41674;52.290;-1.474;2024-02-26T09:49:37;2;2;
55754;PMS5003;41674;52.290;-1.474;2024-02-26T09:52:08;2;2;
55754;PMS5003;41674;52.290;-1.474;2024-02-26T09:54:36;3;2;
55754;PMS5003;41674;52.290;-1.474;2024-02-26T09:57:06;2;2;
55754;PMS5003;41674;52.290;-1.474;2024-02-26T09:59:36;2;2;
55754;PMS5003;41674;52.290;-1.474;2024-02-26T10:02:05;2;1;
55754;PMS5003;41674;52.290;-1.474;2024-02-26T10:04:34;2;2;
55754;PMS5003;41674;52.290;-1.474;2024-02-26T10:07:04;4;3;
55754;PMS5003;41674;52.290;-1.474;2024-02-26T10:09:34;1;1;
55754;PMS5003;41674;52.290;-1.474;2024-02-26T10:12:03;3;3;
55754;PMS5003;41674;52.290;-1.474;2024-02-26T10:14:33;3;3;
55754;PMS5003;41674;52.290;-1.474;2024-02-26T10:17:03;3;3;
55754;PMS5003;41674;52.290;-1.474;2024-02-26T10:19:32;4;2;
55754;PMS5003;41674;52.290;-1.474;2024-02-26T10:22:02;3;2;
55754;PMS5003;41674;52.290;-1.474;2024-02-26T10:24:31;1;1;
55754;PMS5003;41674;52.290;-1.474;2024-02-26T10:27:01;2;2;
55754;PMS5003;41674;52.290;-1.474;2024-02-26T10:29:31;1;1;
55754;PMS5003;41674;52.290;-1.474;2024-02-26T10:32:01;5;1;
55754;PMS5003;41674;52.290;-1.474;2024-02-26T10:34:30;3;3;
55754;PMS5003;41674;52.290;-1.474;2024-02-26T10:37:02;1;1;
55754;PMS5003;41674;52.290;-1.474;2024-02-26T10:39:29;2;1;
55754;PMS5003;41674;52.290;-1.474;2024-02-26T10:41:59;3;3;
55754;PMS5003;41674;52.290;-1.474;2024-02-26T10:44:29;2;2;
55754;PMS5003;41674;52.290;-1.474;2024-02-26T10:46:58;3;2;
55754;PMS5003;41674;52.290;-1.474;2024-02-26T10:49:29;3;3;
55754;PMS5003;41674;52.290;-1.474;2024-02-26T10:51:58;3;3;
55754;PMS5003;41674;52.290;-1.474;2024-02-26T10:54:27;5;5;
55754;PMS5003;41674;52.290;-1.474;2024-02-26T10:56:57;1;1;
55754;PMS5003;41674;52.290;-1.474;2024-02-26T10:59:28;3;3;
55754;PMS5003;41674;52.290;-1.474;2024-02-26T11:01:56;0;0;
55754;PMS5003;41674;52.290;-1.474;2024-02-26T11:04:27;3;3;
55754;PMS5003;41674;52.290;-1.474;2024-02-26T11:06:56;1;1;
55754;PMS5003;41674;52.290;-1.474;2024-02-26T11:09:25;2;2;
55754;PMS5003;41674;52.290;-1.474;2024-02-26T11:11:54;0;0;
55754;PMS5003;41674;52.290;-1.474;2024-02-26T11:14:26;2;2;
55754;PMS5003;41674;52.290;-1.474;2024-02-26T11:16:54;2;2;
55754;PMS5003;41674;52.290;-1.474;2024-02-26T11:19:24;3;3;
55754;PMS5003;41674;52.290;-1.474;2024-02-26T11:21:53;2;2;
55754;PMS5003;41674;52.290;-1.474;2024-02-26T11:24:23;3;2;
55754;PMS5003;41674;52.290;-1.474;2024-02-26T11:26:53;2;2;
55754;PMS5003;41674;52.290;-1.474;2024-02-26T11:29:22;1;1;
55754;PMS5003;41674;52.290;-1.474;2024-02-26T11:31:52;3;2;
55754;PMS5003;41674;52.290;-1.474;2024-02-26T11:34:23;1;1;
55754;PMS5003;41674;52.290;-1.474;2024-02-26T11:36:51;1;1;
55754;PMS5003;41674;52.290;-1.474;2024-02-26T11:39:21;4;2;
55754;PMS5003;41674;52.290;-1.474;2024-02-26T11:41:52;3;3;
55754;PMS5003;41674;52.290;-1.474;2024-02-26T11:46:49;3;2;
55754;PMS5003;41674;52.290;-1.474;2024-02-26T11:51:50;2;2;
55754;PMS5003;41674;52.290;-1.474;2024-02-26T11:56:49;3;3;
55754;PMS5003;41674;52.290;-1.474;2024-02-26T11:59:37;2;2;
55754;PMS5003;41674;52.290;-1.474;2024-02-26T12:01:48;3;3;
55754;PMS5003;41674;52.290;-1.474;2024-02-26T12:04:19;3;3;
55754;PMS5003;41674;52.290;-1.474;2024-02-26T12:06:50;2;2;
55754;PMS5003;41674;52.290;-1.474;2024-02-26T12:11:46;3;3;
55754;PMS5003;41674;52.290;-1.474;2024-02-26T12:14:16;2;2;
55754;PMS5003;41674;52.290;-1.474;2024-02-26T12:16:45;3;3;
55754;PMS5003;41674;52.290;-1.474;2024-02-26T12:19:15;2;2;
55754;PMS5003;41674;52.290;-1.474;2024-02-26T12:21:44;3;2;
55754;PMS5003;41674;52.290;-1.474;2024-02-26T12:24:14;4;4;
55754;PMS5003;41674;52.290;-1.474;2024-02-26T12:26:44;2;2;
55754;PMS5003;41674;52.290;-1.474;2024-02-26T12:29:13;2;2;
55754;PMS5003;41674;52.290;-1.474;2024-02-26T12:31:43;2;2;
55754;PMS5003;41674;52.290;-1.474;2024-02-26T12:34:12;6;5;
55754;PMS5003;41674;52.290;-1.474;2024-02-26T12:36:42;4;4;
55754;PMS5003;41674;52.290;-1.474;2024-02-26T12:39:12;3;3;
55754;PMS5003;41674;52.290;-1.474;2024-02-26T12:41:41;6;5;
55754;PMS5003;41674;52.290;-1.474;2024-02-26T12:44:11;4;3;
55754;PMS5003;41674;52.290;-1.474;2024-02-26T12:46:41;4;4;
55754;PMS5003;41674;52.290;-1.474;2024-02-26T12:49:14;4;4;
55754;PMS5003;41674;52.290;-1.474;2024-02-26T12:51:40;3;1;
55754;PMS5003;41674;52.290;-1.474;2024-02-26T12:54:09;2;2;
55754;PMS5003;41674;52.290;-1.474;2024-02-26T12:56:39;1;1;
55754;PMS5003;41674;52.290;-1.474;2024-02-26T12:59:10;2;2;
55754;PMS5003;41674;52.290;-1.474;2024-02-26T13:01:38;2;2;
55754;PMS5003;41674;52.290;-1.474;2024-02-26T13:04:08;3;2;
55754;PMS5003;41674;52.290;-1.474;2024-02-26T13:06:37;2;2;
55754;PMS5003;41674;52.290;-1.474;2024-02-26T13:09:07;3;3;
55754;PMS5003;41674;52.290;-1.474;2024-02-26T13:11:39;3;3;
55754;PMS5003;41674;52.290;-1.474;2024-02-26T13:14:06;3;3;
55754;PMS5003;41674;52.290;-1.474;2024-02-26T13:16:36;2;2;
55754;PMS5003;41674;52.290;-1.474;2024-02-26T13:19:09;0;0;
55754;PMS5003;41674;52.290;-1.474;2024-02-26T13:21:35;3;1;
55754;PMS5003;41674;52.290;-1.474;2024-02-26T13:24:05;1;0;
55754;PMS5003;41674;52.290;-1.474;2024-02-26T13:26:34;0;0;
55754;PMS5003;41674;52.290;-1.474;2024-02-26T13:29:04;3;2;
55754;PMS5003;41674;52.290;-1.474;2024-02-26T13:31:38;0;0;
55754;PMS5003;41674;52.290;-1.474;2024-02-26T13:34:04;0;0;
55754;PMS5003;41674;52.290;-1.474;2024-02-26T13:36:33;2;2;
55754;PMS5003;41674;52.290;-1.474;2024-02-26T13:39:02;0;0;
55754;PMS5003;41674;52.290;-1.474;2024-02-26T13:41:32;1;1;
55754;PMS5003;41674;52.290;-1.474;2024-02-26T13:44:02;0;0;
55754;PMS5003;41674;52.290;-1.474;2024-02-26T13:46:32;1;0;
55754;PMS5003;41674;52.290;-1.474;2024-02-26T13:49:02;0;0;
55754;PMS5003;41674;52.290;-1.474;2024-02-26T13:51:30;1;1;
55754;PMS5003;41674;52.290;-1.474;2024-02-26T13:54:00;0;0;
55754;PMS5003;41674;52.290;-1.474;2024-02-26T13:56:30;1;1;
55754;PMS5003;41674;52.290;-1.474;2024-02-26T13:58:59;2;2;
55754;PMS5003;41674;52.290;-1.474;2024-02-26T14:01:30;2;2;
55754;PMS5003;41674;52.290;-1.474;2024-02-26T14:03:59;1;1;
55754;PMS5003;41674;52.290;-1.474;2024-02-26T14:06:28;2;2;
55754;PMS5003;41674;52.290;-1.474;2024-02-26T14:08:58;1;1;
55754;PMS5003;41674;52.290;-1.474;2024-02-26T14:11:27;1;1;
55754;PMS5003;41674;52.290;-1.474;2024-02-26T14:13:57;2;2;
55754;PMS5003;41674;52.290;-1.474;2024-02-26T14:16:27;1;1;
55754;PMS5003;41674;52.290;-1.474;2024-02-26T14:18:58;0;0;
55754;PMS5003;41674;52.290;-1.474;2024-02-26T14:21:26;1;1;
55754;PMS5003;41674;52.290;-1.474;2024-02-26T14:23:56;4;2;
55754;PMS5003;41674;52.290;-1.474;2024-02-26T14:26:25;0;0;
55754;PMS5003;41674;52.290;-1.474;2024-02-26T14:28:55;1;1;
55754;PMS5003;41674;52.290;-1.474;2024-02-26T14:31:25;1;1;
55754;PMS5003;41674;52.290;-1.474;2024-02-26T14:33:54;3;3;
55754;PMS5003;41674;52.290;-1.474;2024-02-26T14:36:24;3;2;
55754;PMS5003;41674;52.290;-1.474;2024-02-26T14:38:54;1;1;
55754;PMS5003;41674;52.290;-1.474;2024-02-26T14:41:23;1;1;
55754;PMS5003;41674;52.290;-1.474;2024-02-26T14:43:53;1;0;
55754;PMS5003;41674;52.290;-1.474;2024-02-26T14:46:22;0;0;
55754;PMS5003;41674;52.290;-1.474;2024-02-26T14:48:52;2;2;
55754;PMS5003;41674;52.290;-1.474;2024-02-26T14:51:22;2;2;
55754;PMS5003;41674;52.290;-1.474;2024-02-26T14:53:51;1;1;
55754;PMS5003;41674;52.290;-1.474;2024-02-26T14:56:21;0;0;
55754;PMS5003;41674;52.290;-1.474;2024-02-26T14:58:50;2;2;
55754;PMS5003;41674;52.290;-1.474;2024-02-26T15:01:20;3;3;
55754;PMS5003;41674;52.290;-1.474;2024-02-26T15:03:49;1;1;
55754;PMS5003;41674;52.290;-1.474;2024-02-26T15:06:19;1;1;
55754;PMS5003;41674;52.290;-1.474;2024-02-26T15:08:49;0;0;
55754;PMS5003;41674;52.290;-1.474;2024-02-26T15:11:18;2;1;
55754;PMS5003;41674;52.290;-1.474;2024-02-26T15:13:48;0;0;
55754;PMS5003;41674;52.290;-1.474;2024-02-26T15:16:17;0;0;
55754;PMS5003;41674;52.290;-1.474;2024-02-26T15:18:47;2;0;
55754;PMS5003;41674;52.290;-1.474;2024-02-26T15:21:17;2;1;
55754;PMS5003;41674;52.290;-1.474;2024-02-26T15:23:46;1;1;
55754;PMS5003;41674;52.290;-1.474;2024-02-26T15:26:17;5;3;
55754;PMS5003;41674;52.290;-1.474;2024-02-26T15:28:46;3;3;
55754;PMS5003;41674;52.290;-1.474;2024-02-26T15:31:15;2;2;
55754;PMS5003;41674;52.290;-1.474;2024-02-26T15:33:45;3;1;
55754;PMS5003;41674;52.290;-1.474;2024-02-26T15:36:14;1;1;
55754;PMS5003;41674;52.290;-1.474;2024-02-26T15:38:44;2;2;
55754;PMS5003;41674;52.290;-1.474;2024-02-26T15:41:14;2;2;
55754;PMS5003;41674;52.290;-1.474;2024-02-26T15:43:43;3;1;
55754;PMS5003;41674;52.290;-1.474;2024-02-26T15:46:14;2;1;
55754;PMS5003;41674;52.290;-1.474;2024-02-26T15:48:43;3;3;
55754;PMS5003;41674;52.290;-1.474;2024-02-26T15:53:42;4;2;
55754;PMS5003;41674;52.290;-1.474;2024-02-26T15:56:11;5;4;
55754;PMS5003;41674;52.290;-1.474;2024-02-26T15:58:41;3;3;
55754;PMS5003;41674;52.290;-1.474;2024-02-26T16:01:11;3;3;
55754;PMS5003;41674;52.290;-1.474;2024-02-26T16:03:42;1;1;
55754;PMS5003;41674;52.290;-1.474;2024-02-26T16:06:14;3;2;
55754;PMS5003;41674;52.290;-1.474;2024-02-26T16:08:39;3;3;
55754;PMS5003;41674;52.290;-1.474;2024-02-26T16:11:09;2;2;
55754;PMS5003;41674;52.290;-1.474;2024-02-26T16:13:39;5;3;
55754;PMS5003;41674;52.290;-1.474;2024-02-26T16:16:10;7;5;
55754;PMS5003;41674;52.290;-1.474;2024-02-26T16:18:38;5;5;
55754;PMS5003;41674;52.290;-1.474;2024-02-26T16:21:07;3;2;
55754;PMS5003;41674;52.290;-1.474;2024-02-26T16:23:39;1;1;
55754;PMS5003;41674;52.290;-1.474;2024-02-26T16:26:07;2;2;
55754;PMS5003;41674;52.290;-1.474;2024-02-26T16:28:36;0;0;
55754;PMS5003;41674;52.290;-1.474;2024-02-26T16:31:07;2;2;
55754;PMS5003;41674;52.290;-1.474;2024-02-26T16:33:35;1;1;
55754;PMS5003;41674;52.290;-1.474;2024-02-26T16:36:05;0;0;
55754;PMS5003;41674;52.290;-1.474;2024-02-26T16:38:35;2;1;
55754;PMS5003;41674;52.290;-1.474;2024-02-26T16:41:04;1;1;
55754;PMS5003;41674;52.290;-1.474;2024-02-26T16:43:34;2;2;
55754;PMS5003;41674;52.290;-1.474;2024-02-26T16:46:04;2;2;
55754;PMS5003;41674;52.290;-1.474;2024-02-26T16:48:35;3;2;
55754;PMS5003;41674;52.290;-1.474;2024-02-26T16:51:03;2;2;
55754;PMS5003;41674;52.290;-1.474;2024-02-26T16:53:34;0;0;
55754;PMS5003;41674;52.290;-1.474;2024-02-26T16:56:02;3;2;
55754;PMS5003;41674;52.290;-1.474;2024-02-26T16:58:32;0;0;